Time;durP1;ratioP1;P1;durP2;ratioP2;P2;SDS_P1;SDS_P2;PMS_P1;PMS_P2;Temp;Humidity;BMP_temperature;BMP_pressure;BME280_temperature;BME280_humidity;BME280_pressure;Samples;Min_cycle;Max_cycle;Signal;HPM_P1;HPM_P2
2023/12/30 00:01:12;;;;;;;1.30;0.50;;;;;;;11.28;65.29;100132.72;4984873;28;20480;-40
2023/12/30 00:03:38;;;;;;;1.38;0.63;;;;;;;11.38;64.80;100135.56;5000890;28;20030;-41
2023/12/30 00:06:03;;;;;;;3.15;0.50;;;;;;;11.36;64.64;100142.72;5004055;28;20029;-41
2023/12/30 00:08:29;;;;;;;1.90;0.52;;;;;;;11.31;64.67;100158.00;5001042;28;20030;-41
2023/12/30 00:10:54;;;;;;;3.35;0.77;;;;;;;11.24;65.08;100165.47;5000468;28;20046;-41
2023/12/30 00:13:19;;;;;;;3.72;0.70;;;;;;;11.46;64.65;100164.00;5004163;28;20495;-40
2023/12/30 00:15:45;;;;;;;2.85;0.68;;;;;;;11.15;64.86;100187.19;4998742;28;20093;-40
2023/12/30 00:18:10;;;;;;;1.75;0.52;;;;;;;11.13;64.82;100184.66;5002750;28;20026;-40
2023/12/30 00:20:35;;;;;;;1.13;0.50;;;;;;;10.94;65.64;100178.03;5006047;28;20065;-40
2023/12/30 00:23:01;;;;;;;1.58;0.80;;;;;;;11.02;65.47;100179.28;5003266;28;20037;-41
2023/12/30 00:25:26;;;;;;;1.13;0.47;;;;;;;11.01;65.10;100183.72;5002208;28;20030;-41
2023/12/30 00:27:52;;;;;;;0.55;0.40;;;;;;;10.63;65.75;100198.53;5000057;28;20037;-41
2023/12/30 00:30:17;;;;;;;1.95;0.50;;;;;;;10.49;65.88;100194.19;5004172;28;20164;-41
2023/12/30 00:32:43;;;;;;;0.65;0.40;;;;;;;10.63;66.06;100195.91;5002809;28;20030;-40
2023/12/30 00:35:08;;;;;;;0.82;0.45;;;;;;;10.69;65.94;100194.66;5002143;28;20037;-40
2023/12/30 00:37:34;;;;;;;1.65;0.60;;;;;;;10.54;65.83;100185.97;5001233;28;20072;-39
2023/12/30 00:40:00;;;;;;;1.70;0.68;;;;;;;10.81;65.23;100190.34;5002429;28;20045;-39
2023/12/30 00:42:25;;;;;;;1.50;0.52;;;;;;;10.95;65.32;100187.63;4999915;28;20029;-39
2023/12/30 00:44:51;;;;;;;2.30;0.95;;;;;;;11.04;65.25;100185.31;5002242;28;20050;-39
2023/12/30 00:47:17;;;;;;;1.23;0.50;;;;;;;11.03;64.79;100195.00;5005395;28;20375;-38
2023/12/30 00:49:43;;;;;;;1.17;0.50;;;;;;;11.12;64.70;100193.50;4999620;28;20025;-41
2023/12/30 00:52:08;;;;;;;2.10;0.50;;;;;;;11.00;64.77;100210.16;5005050;28;20045;-40
2023/12/30 00:54:34;;;;;;;2.08;0.43;;;;;;;10.93;65.07;100207.09;5005926;28;20346;-39
2023/12/30 00:56:59;;;;;;;1.70;0.60;;;;;;;10.89;65.34;100209.09;5007632;28;20030;-41
2023/12/30 00:59:24;;;;;;;0.45;0.30;;;;;;;10.93;65.80;100218.47;4996878;28;20026;-40
2023/12/30 01:01:50;;;;;;;1.67;0.88;;;;;;;10.93;65.57;100215.84;5005964;28;20084;-39
2023/12/30 01:04:15;;;;;;;1.48;0.60;;;;;;;10.93;65.25;100212.34;5008793;28;20053;-39
2023/12/30 01:06:40;;;;;;;0.55;0.40;;;;;;;10.94;65.26;100211.41;4989783;28;20045;-41
2023/12/30 01:09:09;;;;;;;3.08;0.60;;;;;;;11.05;65.08;100213.31;4991214;28;20049;-40
2023/12/30 01:11:34;;;;;;;4.38;1.10;;;;;;;11.06;64.95;100221.09;5004618;28;20499;-41
2023/12/30 01:14:00;;;;;;;3.83;1.60;;;;;;;11.06;64.94;100220.28;5004803;28;20056;-41
2023/12/30 01:16:25;;;;;;;2.60;1.25;;;;;;;10.86;65.31;100217.19;4999805;28;20042;-40
2023/12/30 01:18:51;;;;;;;1.70;1.08;;;;;;;10.90;65.27;100221.31;4997013;28;20053;-40
2023/12/30 01:21:17;;;;;;;0.47;0.40;;;;;;;10.68;65.31;100221.91;5008679;28;20044;-41
2023/12/30 01:23:43;;;;;;;1.20;0.40;;;;;;;10.76;65.74;100221.41;5007954;28;20124;-40
2023/12/30 01:26:08;;;;;;;1.50;0.40;;;;;;;10.39;66.25;100231.69;5009982;28;21326;-40
2023/12/30 01:28:34;;;;;;;1.17;0.77;;;;;;;10.36;66.46;100235.34;5006482;28;20480;-41
2023/12/30 01:30:59;;;;;;;1.50;0.40;;;;;;;10.17;67.41;100233.06;5007779;28;20026;-41
2023/12/30 01:33:25;;;;;;;0.35;0.30;;;;;;;10.13;67.23;100239.47;5006320;28;20030;-41
2023/12/30 01:35:50;;;;;;;1.17;0.40;;;;;;;10.06;67.66;100247.72;4989563;28;20065;-41
2023/12/30 01:38:16;;;;;;;1.80;0.70;;;;;;;10.31;67.29;100250.56;5006447;28;20457;-38
2023/12/30 01:40:41;;;;;;;0.60;0.30;;;;;;;10.21;67.24;100255.56;5005691;28;20073;-40
2023/12/30 01:43:24;;;;;;;0.52;0.30;;;;;;;10.33;66.73;100254.81;5006892;28;20443;-40
2023/12/30 01:45:52;;;;;;;0.73;0.40;;;;;;;10.31;67.02;100251.44;5006019;28;20030;-40
2023/12/30 01:48:17;;;;;;;1.08;0.43;;;;;;;10.20;66.70;100257.38;5002438;28;20034;-40
2023/12/30 01:50:43;;;;;;;2.80;0.60;;;;;;;10.16;67.13;100253.25;5004451;28;20504;-41
2023/12/30 01:53:10;;;;;;;6.60;0.90;;;;;;;9.96;67.24;100259.78;5005206;28;20129;-41
2023/12/30 01:55:35;;;;;;;2.70;0.68;;;;;;;10.07;67.15;100252.03;5005141;28;20036;-40
2023/12/30 01:58:01;;;;;;;1.75;0.65;;;;;;;10.17;66.51;100252.31;5003529;28;20034;-41
2023/12/30 02:00:27;;;;;;;2.92;1.05;;;;;;;10.22;66.31;100249.38;5007078;28;20046;-40
2023/12/30 02:02:53;;;;;;;2.03;0.40;;;;;;;10.28;66.13;100242.91;5007544;28;20021;-40
2023/12/30 02:05:19;;;;;;;0.95;0.30;;;;;;;10.02;66.49;100251.50;5004242;28;20400;-40
2023/12/30 02:07:46;;;;;;;0.40;0.30;;;;;;;10.14;66.14;100241.97;5004772;28;20034;-40
2023/12/30 02:10:12;;;;;;;1.38;0.45;;;;;;;10.09;66.34;100235.34;5002693;28;20080;-41
2023/12/30 02:12:37;;;;;;;0.60;0.28;;;;;;;10.17;65.97;100238.34;5006861;28;20509;-40
2023/12/30 02:15:17;;;;;;;2.22;0.57;;;;;;;10.46;65.35;100233.00;5005659;28;20506;-40
2023/12/30 02:17:43;;;;;;;1.17;0.30;;;;;;;10.17;65.76;100240.97;5001753;28;20034;-40
2023/12/30 02:20:09;;;;;;;0.85;0.30;;;;;;;10.05;65.27;100230.31;5004789;28;20052;-40
2023/12/30 02:22:35;;;;;;;0.20;0.20;;;;;;;9.94;65.68;100230.13;5002056;28;20038;-40
2023/12/30 02:25:02;;;;;;;1.55;0.32;;;;;;;9.79;66.01;100234.56;5001269;28;20057;-40
2023/12/30 02:27:27;;;;;;;16.10;0.52;;;;;;;9.79;65.81;100257.34;5007567;28;20541;-39
2023/12/30 02:29:53;;;;;;;0.20;0.20;;;;;;;9.33;66.13;100247.91;5004673;28;20034;-40
2023/12/30 02:32:18;;;;;;;2.60;0.30;;;;;;;9.70;65.60;100262.25;5004273;28;20087;-40
2023/12/30 02:34:44;;;;;;;0.57;0.22;;;;;;;9.80;65.37;100266.94;5005800;28;20042;-40
2023/12/30 02:37:10;;;;;;;3.65;0.55;;;;;;;9.65;65.82;100269.56;5002585;28;20040;-40
2023/12/30 02:39:35;;;;;;;1.60;0.30;;;;;;;9.87;65.31;100278.75;5002852;28;20030;-41
2023/12/30 02:42:01;;;;;;;1.95;0.30;;;;;;;9.85;65.50;100278.84;5003546;28;20041;-41
2023/12/30 02:44:26;;;;;;;1.65;0.32;;;;;;;9.91;66.00;100274.97;5005093;28;20121;-40
2023/12/30 02:46:51;;;;;;;2.55;0.45;;;;;;;9.85;65.66;100272.75;5002014;28;20069;-41
2023/12/30 02:49:18;;;;;;;1.42;0.40;;;;;;;9.87;65.82;100276.13;5003083;28;20029;-39
2023/12/30 02:51:44;;;;;;;3.00;0.50;;;;;;;9.87;65.59;100278.75;5007575;28;20065;-42
2023/12/30 02:54:09;;;;;;;1.48;0.40;;;;;;;9.89;65.62;100288.22;5005684;28;20053;-40
2023/12/30 02:56:35;;;;;;;0.68;0.30;;;;;;;9.86;65.69;100277.06;5006071;28;20799;-44
2023/12/30 02:59:01;;;;;;;0.52;0.43;;;;;;;9.88;66.08;100280.44;5005034;28;20034;-40
2023/12/30 03:01:29;;;;;;;0.45;0.30;;;;;;;9.83;66.05;100283.34;5002673;28;20054;-40
2023/12/30 03:03:56;;;;;;;2.83;0.38;;;;;;;9.81;66.18;100282.63;5005504;28;20034;-40
2023/12/30 03:06:22;;;;;;;0.45;0.35;;;;;;;9.81;66.42;100294.91;5005370;28;20061;-40
2023/12/30 03:08:49;;;;;;;0.32;0.32;;;;;;;9.75;66.46;100304.88;4989328;28;20488;-40
2023/12/30 03:11:14;;;;;;;1.13;0.60;;;;;;;9.86;66.13;100285.78;5006611;28;20065;-40
2023/12/30 03:13:40;;;;;;;1.33;0.30;;;;;;;9.79;66.39;100288.88;5007546;28;20121;-39
2023/12/30 03:16:06;;;;;;;0.20;0.20;;;;;;;9.89;66.67;100288.22;5002018;28;20065;-39
2023/12/30 03:18:31;;;;;;;3.55;0.52;;;;;;;9.89;66.37;100282.97;5003619;28;20036;-40
2023/12/30 03:20:57;;;;;;;0.93;0.30;;;;;;;9.93;66.31;100281.00;5003778;28;20053;-40
2023/12/30 03:23:23;;;;;;;0.55;0.40;;;;;;;9.87;66.40;100286.66;5002357;28;20388;-40
2023/12/30 03:25:50;;;;;;;0.98;0.65;;;;;;;9.91;66.12;100285.50;4998293;28;20053;-41
2023/12/30 03:28:15;;;;;;;1.40;0.30;;;;;;;9.87;66.08;100268.25;4998437;28;20037;-40
2023/12/30 03:30:41;;;;;;;0.70;0.40;;;;;;;9.75;66.47;100278.59;5003573;28;20033;-40
2023/12/30 03:33:06;;;;;;;1.42;0.70;;;;;;;9.85;66.04;100280.63;5004230;28;20087;-41
2023/12/30 03:35:33;;;;;;;0.55;0.30;;;;;;;9.81;66.32;100273.88;5004607;28;20460;-40
2023/12/30 03:37:58;;;;;;;1.08;0.40;;;;;;;9.90;65.98;100278.56;4999079;28;20034;-40
2023/12/30 03:40:23;;;;;;;2.05;0.43;;;;;;;9.94;65.88;100271.34;5004152;28;20048;-40
2023/12/30 03:42:49;;;;;;;2.08;0.50;;;;;;;9.80;65.59;100282.69;5003492;28;20113;-39
2023/12/30 03:45:14;;;;;;;1.10;0.60;;;;;;;9.96;65.74;100278.19;5005261;28;20480;-41
2023/12/30 03:47:39;;;;;;;1.75;0.50;;;;;;;9.83;65.59;100259.69;5001991;28;20552;-41
2023/12/30 03:50:05;;;;;;;4.13;0.50;;;;;;;9.81;65.20;100273.88;5000796;28;20030;-42
2023/12/30 03:52:30;;;;;;;2.15;0.47;;;;;;;9.74;65.48;100260.28;5003955;28;20077;-40
2023/12/30 03:54:56;;;;;;;2.00;0.63;;;;;;;9.61;65.76;100265.44;5004928;28;20042;-40
2023/12/30 03:57:22;;;;;;;1.33;0.30;;;;;;;9.71;65.74;100263.94;5003690;28;20038;-43
2023/12/30 03:59:47;;;;;;;0.63;0.30;;;;;;;9.96;65.39;100258.94;5007581;28;20041;-42
2023/12/30 04:02:17;;;;;;;2.85;0.75;;;;;;;9.92;65.09;100266.16;5002112;28;20061;-42
2023/12/30 04:04:42;;;;;;;2.67;0.60;;;;;;;9.68;65.32;100268.56;5005328;28;20109;-42
2023/12/30 04:07:08;;;;;;;2.92;0.40;;;;;;;9.69;64.99;100270.22;5003271;28;20029;-42
2023/12/30 04:09:33;;;;;;;0.93;0.40;;;;;;;9.51;65.53;100283.56;5006897;28;20030;-39
2023/12/30 04:11:58;;;;;;;2.03;0.50;;;;;;;9.65;65.76;100266.94;5007529;28;20141;-41
2023/12/30 04:14:24;;;;;;;0.98;0.43;;;;;;;9.71;65.41;100282.34;5006815;28;20400;-41
2023/12/30 04:16:49;;;;;;;0.73;0.40;;;;;;;9.79;65.14;100275.75;5004390;28;20057;-41
2023/12/30 04:19:17;;;;;;;2.05;0.52;;;;;;;9.91;64.97;100285.50;5003321;28;20033;-40
2023/12/30 04:21:43;;;;;;;4.90;0.60;;;;;;;9.56;65.47;100293.78;5004147;28;20054;-41
2023/12/30 04:24:08;;;;;;;0.82;0.40;;;;;;;9.71;65.45;100292.84;5002614;28;20065;-41
2023/12/30 04:26:33;;;;;;;2.55;0.45;;;;;;;9.70;65.01;100304.28;5004371;28;20481;-41
2023/12/30 04:28:59;;;;;;;2.95;0.25;;;;;;;9.36;65.69;100295.81;5000813;28;20109;-41
2023/12/30 04:31:24;;;;;;;3.85;0.60;;;;;;;9.73;65.26;100298.00;5006119;28;20045;-42
2023/12/30 04:33:50;;;;;;;1.77;0.50;;;;;;;9.62;65.58;100301.28;5008939;28;20061;-40
2023/12/30 04:36:15;;;;;;;3.20;0.57;;;;;;;9.70;65.33;100299.03;5006779;28;20554;-40
2023/12/30 04:38:40;;;;;;;4.28;0.57;;;;;;;9.78;64.96;100293.31;5007845;28;20076;-41
2023/12/30 04:41:06;;;;;;;4.22;0.52;;;;;;;9.35;65.33;100294.13;5006762;28;20033;-42
2023/12/30 04:43:31;;;;;;;0.40;0.30;;;;;;;9.17;66.24;100292.59;5008809;28;20018;-42
2023/12/30 04:45:56;;;;;;;2.45;0.52;;;;;;;9.47;65.64;100303.06;5007616;28;20034;-42
2023/12/30 04:48:22;;;;;;;2.47;0.70;;;;;;;9.62;65.07;100309.16;5004313;28;20031;-41
2023/12/30 04:50:47;;;;;;;2.50;0.40;;;;;;;9.27;64.97;100312.13;5008665;28;20117;-39
2023/12/30 04:53:13;;;;;;;1.38;0.50;;;;;;;9.05;65.27;100318.63;5007233;28;20395;-39
2023/12/30 04:55:38;;;;;;;3.30;0.43;;;;;;;9.32;65.03;100315.31;5008519;28;20480;-41
2023/12/30 04:58:04;;;;;;;2.42;0.80;;;;;;;9.41;64.52;100314.78;5004155;28;20068;-40
2023/12/30 05:00:29;;;;;;;3.42;1.13;;;;;;;9.43;64.82;100322.56;5006571;28;20038;-40
2023/12/30 05:02:54;;;;;;;2.92;0.77;;;;;;;9.37;64.38;100344.78;5004675;28;20072;-40
2023/12/30 05:05:20;;;;;;;5.80;1.63;;;;;;;9.43;64.24;100333.91;4985108;28;20037;-40
2023/12/30 05:07:45;;;;;;;1.65;0.80;;;;;;;9.36;64.62;100337.00;5003428;28;20106;-41
2023/12/30 05:10:10;;;;;;;1.27;0.50;;;;;;;9.35;64.41;100340.56;5007285;28;20034;-41
2023/12/30 05:12:36;;;;;;;5.43;0.80;;;;;;;9.26;64.42;100339.31;5006487;28;20026;-41
2023/12/30 05:15:01;;;;;;;1.35;0.65;;;;;;;9.44;64.68;100346.13;5003982;28;20038;-40
2023/12/30 05:17:31;;;;;;;1.83;0.60;;;;;;;9.65;63.99;100347.53;5004681;28;20032;-41
2023/12/30 05:19:56;;;;;;;1.33;0.75;;;;;;;9.36;64.30;100353.59;5004092;28;20033;-41
2023/12/30 05:22:22;;;;;;;1.60;0.80;;;;;;;9.33;64.65;100364.25;5007879;28;20034;-40
2023/12/30 05:24:47;;;;;;;0.75;0.47;;;;;;;9.33;64.42;100364.25;5006146;28;20101;-39
2023/12/30 05:27:12;;;;;;;1.75;0.63;;;;;;;9.18;64.96;100359.91;5007822;28;20029;-39
2023/12/30 05:29:38;;;;;;;4.43;0.80;;;;;;;9.34;64.33;100362.50;5003877;28;20483;-41
2023/12/30 05:32:04;;;;;;;1.75;0.50;;;;;;;9.11;64.50;100362.91;5001092;28;20034;-39
2023/12/30 05:34:29;;;;;;;0.32;0.32;;;;;;;9.38;63.53;100377.97;5008391;28;23705;-39
2023/12/30 05:36:54;;;;;;;1.83;0.70;;;;;;;9.22;63.23;100367.53;5002803;28;20096;-41
2023/12/30 05:39:20;;;;;;;0.52;0.30;;;;;;;9.04;62.59;100358.94;5003221;28;20030;-40
2023/12/30 05:41:45;;;;;;;1.65;0.40;;;;;;;9.09;62.64;100362.13;5005320;28;20030;-40
2023/12/30 05:44:11;;;;;;;1.55;0.65;;;;;;;9.30;62.13;100361.84;5007663;28;20030;-40
2023/12/30 05:46:36;;;;;;;2.53;0.73;;;;;;;8.98;61.96;100380.28;5003567;28;20059;-42
2023/12/30 05:49:02;;;;;;;0.47;0.30;;;;;;;8.61;61.94;100398.06;5002590;28;20076;-40
2023/12/30 05:51:27;;;;;;;0.32;0.30;;;;;;;8.94;60.69;100373.53;5006216;28;20117;-40
2023/12/30 05:53:52;;;;;;;2.38;0.70;;;;;;;8.87;60.67;100385.28;5006503;28;20038;-40
2023/12/30 05:56:22;;;;;;;2.72;0.82;;;;;;;8.89;60.23;100386.91;5003014;28;20048;-41
2023/12/30 05:58:48;;;;;;;1.05;0.50;;;;;;;9.04;60.22;100384.34;5005243;28;20108;-41
2023/12/30 06:01:13;;;;;;;1.08;0.50;;;;;;;8.88;60.25;100389.59;5004818;28;20030;-39
2023/12/30 06:03:39;;;;;;;3.53;0.70;;;;;;;9.05;60.42;100397.38;5002242;28;20034;-41
2023/12/30 06:06:05;;;;;;;3.55;0.85;;;;;;;9.05;61.25;100402.63;4990732;28;20089;-40
2023/12/30 06:08:32;;;;;;;4.65;0.82;;;;;;;8.92;62.17;100404.25;5006573;28;20037;-38
2023/12/30 06:10:58;;;;;;;4.10;0.75;;;;;;;9.14;62.06;100406.50;5005560;28;20467;-40
2023/12/30 06:13:23;;;;;;;4.65;0.40;;;;;;;9.04;61.56;100421.91;5005125;28;20520;-41
2023/12/30 06:15:50;;;;;;;0.70;0.32;;;;;;;9.33;60.91;100416.78;5008146;28;20044;-39
2023/12/30 06:18:16;;;;;;;1.85;0.55;;;;;;;9.12;60.20;100411.84;5008357;28;20033;-38
2023/12/30 06:20:46;;;;;;;2.17;1.02;;;;;;;9.13;59.90;100413.53;5004140;28;20072;-39
2023/12/30 06:23:12;;;;;;;5.90;0.90;;;;;;;9.30;59.16;100422.22;5004496;28;20408;-39
2023/12/30 06:25:38;;;;;;;5.95;0.80;;;;;;;8.76;59.48;100423.47;5005893;28;20029;-39
2023/12/30 06:28:05;;;;;;;3.22;1.17;;;;;;;8.98;58.88;100436.22;5004014;28;20026;-39
2023/12/30 06:30:30;;;;;;;3.00;0.50;;;;;;;8.89;59.55;100438.53;5007551;28;20404;-40
2023/12/30 06:32:56;;;;;;;1.23;0.50;;;;;;;9.08;59.40;100448.81;4989737;28;20041;-41
2023/12/30 06:35:21;;;;;;;1.58;0.55;;;;;;;9.09;59.29;100445.28;4985556;28;20437;-40
2023/12/30 06:37:49;;;;;;;3.28;0.93;;;;;;;9.34;58.93;100443.91;5004027;28;20045;-40
2023/12/30 06:40:15;;;;;;;1.80;0.70;;;;;;;9.20;59.74;100452.53;5006713;28;20042;-39
2023/12/30 06:42:44;;;;;;;3.78;0.70;;;;;;;9.36;59.99;100450.75;5002813;28;20034;-39
2023/12/30 06:45:10;;;;;;;1.67;0.70;;;;;;;9.35;60.15;100462.19;5003440;28;20578;-38
2023/12/30 06:47:36;;;;;;;0.73;0.47;;;;;;;9.19;60.24;100462.22;5005562;28;20116;-40
2023/12/30 06:50:01;;;;;;;5.60;0.60;;;;;;;9.04;60.35;100461.28;4973805;28;20128;-38
2023/12/30 06:52:27;;;;;;;2.85;0.60;;;;;;;8.85;60.00;100479.84;5005018;28;20026;-40
2023/12/30 06:54:53;;;;;;;1.23;0.63;;;;;;;8.83;60.44;100469.44;5004178;28;20112;-37
2023/12/30 06:57:19;;;;;;;1.50;0.63;;;;;;;8.95;60.39;100477.56;5002128;28;20049;-40
2023/12/30 06:59:44;;;;;;;1.10;0.47;;;;;;;8.97;59.88;100475.69;5005825;28;20022;-39
2023/12/30 07:02:10;;;;;;;3.78;0.70;;;;;;;9.08;59.75;100478.56;5007405;28;20041;-38
2023/12/30 07:04:35;;;;;;;2.92;0.40;;;;;;;9.03;60.06;100477.97;5002133;28;20037;-39
2023/12/30 07:07:00;;;;;;;2.75;0.40;;;;;;;8.58;60.23;100484.78;4996103;28;20492;-38
2023/12/30 07:09:26;;;;;;;2.63;0.85;;;;;;;9.07;59.90;100495.25;4999600;28;20080;-40
2023/12/30 07:11:51;;;;;;;3.30;0.40;;;;;;;9.02;59.89;100492.00;5006628;28;20034;-40
2023/12/30 07:14:16;;;;;;;5.30;0.80;;;;;;;8.89;59.96;100506.75;5004070;28;20455;-40
2023/12/30 07:16:42;;;;;;;2.42;0.80;;;;;;;8.95;60.31;100504.63;5003913;28;20037;-40
2023/12/30 07:19:07;;;;;;;3.70;1.33;;;;;;;9.07;59.94;100511.00;5004928;28;20030;-39
2023/12/30 07:21:32;;;;;;;3.92;0.65;;;;;;;8.93;60.45;100510.91;5004347;28;20152;-39
2023/12/30 07:23:58;;;;;;;4.90;1.00;;;;;;;9.05;60.31;100520.72;5002460;28;20032;-39
2023/12/30 07:26:23;;;;;;;2.70;0.65;;;;;;;9.07;60.20;100537.22;5003070;28;20456;-39
2023/12/30 07:28:48;;;;;;;2.28;0.90;;;;;;;8.85;60.18;100537.56;5005360;28;20037;-39
2023/12/30 07:31:15;;;;;;;5.53;1.17;;;;;;;8.80;60.48;100535.19;5002043;28;20113;-39
2023/12/30 07:33:41;;;;;;;3.75;0.75;;;;;;;9.06;59.80;100560.97;5006536;28;20038;-39
2023/12/30 07:36:07;;;;;;;5.00;0.77;;;;;;;9.23;59.44;100547.72;5004870;28;20079;-39
2023/12/30 07:38:33;;;;;;;3.08;0.88;;;;;;;9.02;59.90;100555.00;5001047;28;20034;-39
2023/12/30 07:40:59;;;;;;;8.52;1.27;;;;;;;9.27;59.12;100559.75;5003884;28;20049;-39
2023/12/30 07:43:24;;;;;;;3.17;0.70;;;;;;;9.12;59.48;100566.72;5004702;28;20032;-39
2023/12/30 07:45:49;;;;;;;2.03;0.50;;;;;;;9.32;59.66;100572.63;5000173;28;20037;-39
2023/12/30 07:48:15;;;;;;;3.13;0.88;;;;;;;9.04;59.85;100579.41;4998773;28;20032;-39
2023/12/30 07:50:41;;;;;;;1.45;0.70;;;;;;;9.32;59.73;100579.69;4999436;28;20032;-40
2023/12/30 07:53:06;;;;;;;1.50;0.70;;;;;;;9.37;60.16;100583.75;5001009;28;20026;-39
2023/12/30 07:55:31;;;;;;;3.83;1.05;;;;;;;9.38;59.83;100597.69;5005350;28;20030;-41
2023/12/30 07:57:57;;;;;;;2.22;0.60;;;;;;;9.38;60.13;100587.19;5001085;28;20120;-40
2023/12/30 08:00:22;;;;;;;4.57;0.70;;;;;;;9.25;60.30;100602.78;5003564;28;20068;-41
2023/12/30 08:02:48;;;;;;;1.02;0.60;;;;;;;9.09;60.87;100600.13;5004902;28;20504;-39
2023/12/30 08:05:13;;;;;;;4.63;2.13;;;;;;;9.48;60.32;100595.41;5003593;28;20034;-39
2023/12/30 08:07:38;;;;;;;1.92;0.90;;;;;;;9.23;60.61;100594.16;5007647;28;20809;-39
2023/12/30 08:10:04;;;;;;;8.38;1.20;;;;;;;9.50;60.25;100590.94;5007012;28;20053;-39
2023/12/30 08:12:29;;;;;;;7.88;1.67;;;;;;;9.12;60.02;100600.84;5003854;28;20030;-39
2023/12/30 08:14:55;;;;;;;2.60;0.95;;;;;;;9.20;60.51;100615.31;5005752;28;20112;-39
2023/12/30 08:17:20;;;;;;;5.70;1.77;;;;;;;9.48;59.83;100612.03;5011548;28;20063;-40
2023/12/30 08:19:47;;;;;;;6.05;0.85;;;;;;;9.32;59.85;100619.91;5006704;28;20105;-42
2023/12/30 08:22:12;;;;;;;3.42;0.90;;;;;;;9.13;60.22;100626.16;5008353;28;20045;-43
2023/12/30 08:24:38;;;;;;;3.88;0.80;;;;;;;9.22;60.03;100626.59;4986357;28;20041;-40
2023/12/30 08:27:03;;;;;;;4.43;0.77;;;;;;;9.23;59.77;100617.78;5007788;28;20030;-40
2023/12/30 08:29:29;;;;;;;4.10;1.08;;;;;;;9.13;60.20;100625.31;5008022;28;20114;-40
2023/12/30 08:31:54;;;;;;;5.85;1.10;;;;;;;9.28;59.80;100627.09;5007826;28;20312;-40
2023/12/30 08:34:21;;;;;;;1.52;0.80;;;;;;;9.07;60.47;100639.59;5008590;28;20040;-40
2023/12/30 08:36:46;;;;;;;3.03;0.98;;;;;;;8.99;60.61;100639.19;5007641;28;20068;-39
2023/12/30 08:39:12;;;;;;;1.60;0.63;;;;;;;9.15;60.43;100637.41;5001323;28;20033;-38
2023/12/30 08:41:38;;;;;;;6.10;1.45;;;;;;;9.10;60.27;100636.81;5006207;28;20040;-39
2023/12/30 08:44:03;;;;;;;1.85;0.80;;;;;;;9.18;60.58;100643.44;5006865;28;20022;-39
2023/12/30 08:46:29;;;;;;;2.85;0.70;;;;;;;9.27;59.95;100650.81;5005633;28;20129;-39
2023/12/30 08:48:54;;;;;;;3.80;0.65;;;;;;;9.31;59.79;100652.34;5007243;28;20030;-37
2023/12/30 08:51:20;;;;;;;5.53;0.90;;;;;;;9.55;59.63;100651.94;4996722;28;20100;-39
2023/12/30 08:53:45;;;;;;;3.63;0.77;;;;;;;9.38;60.22;100651.09;5007685;28;20032;-40
2023/12/30 08:56:11;;;;;;;3.55;0.82;;;;;;;9.15;60.38;100661.03;5004896;28;20034;-39
2023/12/30 08:58:36;;;;;;;6.63;0.88;;;;;;;9.48;60.00;100666.34;5005936;28;20689;-39
2023/12/30 09:01:02;;;;;;;5.55;0.93;;;;;;;9.50;59.65;100656.59;5003413;28;20133;-42
2023/12/30 09:03:28;;;;;;;8.85;1.95;;;;;;;9.58;59.30;100664.91;5008797;28;20033;-40
2023/12/30 09:05:53;;;;;;;3.53;1.15;;;;;;;9.42;59.82;100668.38;5010690;28;20038;-41
2023/12/30 09:08:19;;;;;;;4.97;1.08;;;;;;;9.40;60.27;100664.97;5009276;28;20042;-38
2023/12/30 09:10:44;;;;;;;4.97;1.00;;;;;;;9.52;59.77;100658.22;5009885;28;20484;-39
2023/12/30 09:13:10;;;;;;;4.38;1.13;;;;;;;9.63;59.95;100675.16;5007578;28;20069;-39
2023/12/30 09:15:36;;;;;;;4.15;0.77;;;;;;;9.65;59.93;100674.16;5004909;28;20069;-38
2023/12/30 09:18:02;;;;;;;5.35;0.80;;;;;;;9.73;59.41;100681.59;5008318;28;20103;-40
2023/12/30 09:20:27;;;;;;;4.25;0.98;;;;;;;9.61;59.61;100675.22;5000303;28;20156;-40
2023/12/30 09:22:53;;;;;;;2.70;0.60;;;;;;;9.46;59.37;100683.03;5004680;28;20026;-38
2023/12/30 09:25:18;;;;;;;5.30;1.17;;;;;;;9.62;59.45;100679.56;5005289;28;20034;-39
2023/12/30 09:27:45;;;;;;;1.40;0.43;;;;;;;9.83;59.13;100682.78;5002560;28;20026;-40
2023/12/30 09:30:11;;;;;;;2.42;0.52;;;;;;;9.62;59.43;100697.94;5002854;28;20113;-40
2023/12/30 09:32:36;;;;;;;5.38;0.60;;;;;;;9.50;59.06;100696.00;5002209;28;20117;-39
2023/12/30 09:35:03;;;;;;;2.00;0.68;;;;;;;9.71;59.18;100694.84;5005157;28;20030;-39
2023/12/30 09:37:28;;;;;;;4.63;0.57;;;;;;;9.41;59.13;100708.69;5007506;28;20124;-39
2023/12/30 09:39:54;;;;;;;3.83;0.73;;;;;;;9.53;59.49;100690.59;5006521;28;20116;-40
2023/12/30 09:42:20;;;;;;;1.50;0.45;;;;;;;9.12;59.62;100697.97;5006780;28;20663;-40
2023/12/30 09:44:47;;;;;;;2.75;0.82;;;;;;;9.49;59.61;100718.81;5002475;28;20550;-40
2023/12/30 09:47:13;;;;;;;3.25;0.77;;;;;;;9.50;59.35;100709.13;5004378;28;20042;-40
2023/12/30 09:49:40;;;;;;;2.58;0.63;;;;;;;9.82;58.36;100732.81;5001703;28;20053;-40
2023/12/30 09:52:09;;;;;;;19.25;1.83;;;;;;;9.63;58.74;100715.41;5003959;28;20037;-39
2023/12/30 09:54:34;;;;;;;2.58;1.20;;;;;;;9.54;58.89;100719.38;5006986;28;20459;-41
2023/12/30 09:57:02;;;;;;;4.72;1.30;;;;;;;9.67;58.87;100743.22;5005301;28;20037;-39
2023/12/30 09:59:29;;;;;;;7.10;1.02;;;;;;;9.65;59.34;100736.38;5008531;28;20030;-37
2023/12/30 10:01:55;;;;;;;3.17;0.52;;;;;;;9.31;58.73;100741.63;5005088;28;20123;-39
2023/12/30 10:04:21;;;;;;;5.57;0.95;;;;;;;9.98;58.11;100732.84;5004983;28;20022;-39
2023/12/30 10:06:49;;;;;;;4.03;1.27;;;;;;;9.92;58.61;100734.00;5003318;28;20038;-38
2023/12/30 10:09:15;;;;;;;13.02;1.70;;;;;;;9.75;58.46;100740.19;5000957;28;20465;-41
2023/12/30 10:11:43;;;;;;;4.13;0.90;;;;;;;9.63;58.89;100739.06;5003221;28;20040;-41
2023/12/30 10:14:09;;;;;;;9.20;1.42;;;;;;;9.96;58.24;100732.06;4997577;28;20109;-40
2023/12/30 10:16:35;;;;;;;8.93;0.95;;;;;;;9.84;58.52;100749.34;5000158;28;20036;-41
2023/12/30 10:19:01;;;;;;;3.45;0.85;;;;;;;9.79;58.43;100754.00;5006764;28;20026;-40
2023/12/30 10:21:27;;;;;;;6.45;0.85;;;;;;;9.98;58.33;100770.47;5005089;28;20029;-38
2023/12/30 10:23:54;;;;;;;10.90;1.52;;;;;;;9.95;58.00;100746.97;5003724;28;20041;-41
2023/12/30 10:26:21;;;;;;;6.68;1.25;;;;;;;10.04;57.82;100772.78;5004847;28;20053;-41
2023/12/30 10:28:47;;;;;;;2.45;0.82;;;;;;;9.71;58.03;100755.28;5003541;28;20057;-41
2023/12/30 10:31:16;;;;;;;5.63;0.93;;;;;;;9.81;58.14;100760.03;5002770;28;20090;-41
2023/12/30 10:33:42;;;;;;;4.45;0.80;;;;;;;9.99;57.94;100756.41;4969292;28;20884;-39
2023/12/30 10:36:08;;;;;;;3.75;1.00;;;;;;;9.97;58.20;100763.50;4998698;28;20033;-40
2023/12/30 10:38:35;;;;;;;1.13;0.63;;;;;;;9.81;57.95;100752.13;5000692;28;20086;-40
2023/12/30 10:41:00;;;;;;;2.35;0.77;;;;;;;9.92;58.04;100752.38;5002360;28;20033;-40
2023/12/30 10:43:26;;;;;;;1.13;0.73;;;;;;;9.69;58.04;100759.75;4999738;28;20040;-40
2023/12/30 10:46:01;;;;;;;4.97;0.75;;;;;;;10.16;57.68;100757.25;5004326;28;20026;-41
2023/12/30 10:48:32;;;;;;;2.05;0.60;;;;;;;9.81;58.06;100768.78;5001277;28;20025;-40
2023/12/30 10:50:59;;;;;;;6.57;0.70;;;;;;;9.72;57.72;100770.13;4996842;28;20568;-38
2023/12/30 10:53:39;;;;;;;3.30;0.60;;;;;;;10.19;57.81;100765.78;5002476;28;20041;-40
2023/12/30 10:56:07;;;;;;;6.90;0.95;;;;;;;10.13;58.14;100771.41;4982955;28;20060;-42
2023/12/30 10:58:36;;;;;;;3.45;1.00;;;;;;;10.16;58.30;100767.75;4999768;28;20040;-40
2023/12/30 11:01:04;;;;;;;4.57;1.23;;;;;;;9.64;58.24;100798.56;5005718;28;20034;-40
2023/12/30 11:03:31;;;;;;;5.18;1.13;;;;;;;9.61;58.26;100789.06;5003180;28;20541;-39
2023/12/30 11:06:21;;;;;;;3.47;1.00;;;;;;;9.82;57.92;100790.63;5000280;28;20113;-40
2023/12/30 11:08:46;;;;;;;6.63;1.60;;;;;;;10.11;57.22;100785.56;4998496;28;20073;-38
2023/12/30 11:11:14;;;;;;;6.65;1.20;;;;;;;9.84;58.17;100796.66;4998355;28;20780;-39
2023/12/30 11:13:44;;;;;;;3.78;0.90;;;;;;;10.22;57.26;100793.69;4992710;28;20052;-39
2023/12/30 11:16:12;;;;;;;6.03;2.40;;;;;;;10.21;57.90;100795.50;4999286;28;20045;-39
2023/12/30 11:18:55;;;;;;;3.40;0.75;;;;;;;10.20;57.33;100800.84;4995247;28;20076;-38
2023/12/30 11:21:40;;;;;;;6.68;0.77;;;;;;;10.07;56.88;100800.66;4993458;28;20037;-39
2023/12/30 11:24:17;;;;;;;7.53;1.33;;;;;;;10.20;56.90;100808.75;4998095;28;20366;-38
2023/12/30 11:26:44;;;;;;;6.25;0.70;;;;;;;10.21;56.47;100790.22;5001406;28;20084;-39